createdAt,value
2023-01-19T00:02:01.156Z,19.02
2023-01-19T00:04:27.555Z,7.82
2023-01-19T00:06:53.945Z,9.77
2023-01-19T00:09:22.654Z,5.35
2023-01-19T00:11:48.974Z,4.35
2023-01-19T00:14:15.278Z,5.55
2023-01-19T00:16:41.651Z,4.35
2023-01-19T00:19:08.729Z,3.65
2023-01-19T00:21:35.098Z,3.30
2023-01-19T00:24:01.506Z,4.40
2023-01-19T00:26:27.880Z,2.95
2023-01-19T00:28:54.166Z,4.50
2023-01-19T00:31:21.884Z,1.88
2023-01-19T00:33:49.263Z,2.90
2023-01-19T00:36:16.584Z,1.48
2023-01-19T00:38:42.914Z,1.20
2023-01-19T00:41:09.269Z,2.30
2023-01-19T00:43:35.582Z,1.65
2023-01-19T00:46:01.959Z,1.60
2023-01-19T00:48:28.378Z,2.00
2023-01-19T00:50:55.114Z,3.03
2023-01-19T00:53:21.507Z,4.32
2023-01-19T00:55:47.866Z,2.83
2023-01-19T00:58:14.251Z,8.30
2023-01-19T01:00:40.685Z,7.45
2023-01-19T01:03:07.435Z,7.70
2023-01-19T01:05:33.967Z,8.52
2023-01-19T01:08:00.368Z,8.75
2023-01-19T01:10:28.413Z,14.82
2023-01-19T01:12:58.638Z,13.07
2023-01-19T01:15:26.981Z,12.32
2023-01-19T01:17:53.531Z,15.38
2023-01-19T01:20:30.179Z,24.23
2023-01-19T01:22:57.084Z,14.77
2023-01-19T01:25:24.659Z,18.73
2023-01-19T01:27:52.585Z,16.25
2023-01-19T01:30:19.548Z,14.82
2023-01-19T01:32:45.893Z,11.05
2023-01-19T01:35:12.600Z,12.05
2023-01-19T01:37:39.049Z,11.85
2023-01-19T01:40:06.443Z,15.00
2023-01-19T01:42:34.293Z,12.30
2023-01-19T01:45:02.421Z,8.25
2023-01-19T01:47:32.550Z,8.93
2023-01-19T01:50:17.822Z,6.85
2023-01-19T01:53:07.506Z,8.88
2023-01-19T01:55:32.720Z,4.97
2023-01-19T01:58:01.412Z,7.00
2023-01-19T02:00:49.487Z,7.25
2023-01-19T02:03:16.072Z,5.35
2023-01-19T02:05:44.513Z,6.75
2023-01-19T02:08:38.022Z,11.07
2023-01-19T02:11:23.440Z,10.45
2023-01-19T02:13:49.814Z,11.93
2023-01-19T02:16:16.585Z,8.95
2023-01-19T02:18:43.381Z,6.35
2023-01-19T02:21:12.626Z,8.80
2023-01-19T02:23:38.991Z,4.38
2023-01-19T02:26:05.737Z,8.55
2023-01-19T02:28:32.093Z,7.53
2023-01-19T02:30:58.532Z,8.25
2023-01-19T02:33:24.950Z,6.38
2023-01-19T02:35:52.083Z,3.70
2023-01-19T02:38:19.602Z,6.97
2023-01-19T02:40:46.611Z,4.88
2023-01-19T02:43:14.663Z,5.65
2023-01-19T02:45:42.260Z,6.97
2023-01-19T02:48:08.611Z,6.70
2023-01-19T02:50:50.512Z,10.40
2023-01-19T02:53:35.831Z,7.53
2023-01-19T02:56:11.401Z,11.85
2023-01-19T02:58:43.869Z,8.77
2023-01-19T03:01:16.078Z,3.72
2023-01-19T03:03:52.010Z,1.23
2023-01-19T03:06:25.980Z,10.45
2023-01-19T03:08:59.074Z,3.17
2023-01-19T03:11:28.227Z,6.57
2023-01-19T03:14:14.809Z,5.22
2023-01-19T03:16:42.901Z,4.78
2023-01-19T03:19:28.665Z,5.90
2023-01-19T03:21:59.772Z,5.90
2023-01-19T03:24:29.158Z,0.85
2023-01-19T03:26:59.550Z,1.98
2023-01-19T03:29:30.864Z,5.13
2023-01-19T03:31:59.679Z,2.47
2023-01-19T03:34:28.457Z,8.30
2023-01-19T03:36:57.450Z,3.60
2023-01-19T03:39:24.784Z,6.68
2023-01-19T03:41:57.073Z,6.13
2023-01-19T03:44:24.256Z,6.53
2023-01-19T03:46:51.313Z,3.22
2023-01-19T03:49:17.757Z,2.53
2023-01-19T03:51:44.160Z,4.95
2023-01-19T03:54:10.936Z,2.42
2023-01-19T03:56:37.726Z,4.78
2023-01-19T03:59:05.867Z,3.00
2023-01-19T04:01:32.706Z,4.15
2023-01-19T04:03:59.303Z,4.80
2023-01-19T04:06:26.406Z,2.40
2023-01-19T04:08:52.755Z,3.67
2023-01-19T04:11:19.186Z,5.50
2023-01-19T04:13:45.529Z,6.03
2023-01-19T04:16:12.530Z,5.28
2023-01-19T04:18:41.538Z,7.93
2023-01-19T04:21:07.929Z,5.28
2023-01-19T04:23:34.856Z,3.97
2023-01-19T04:26:02.914Z,10.13
2023-01-19T04:28:29.266Z,2.35
2023-01-19T04:30:55.693Z,5.13
2023-01-19T04:33:22.464Z,3.20
2023-01-19T04:35:49.473Z,4.45
2023-01-19T04:38:16.191Z,4.18
2023-01-19T04:40:43.886Z,5.97
2023-01-19T04:43:10.186Z,4.95
2023-01-19T04:45:36.891Z,2.92
2023-01-19T04:48:06.268Z,4.90
2023-01-19T04:50:32.772Z,12.70
2023-01-19T04:52:59.581Z,8.55
2023-01-19T04:55:26.128Z,6.97
2023-01-19T04:57:52.485Z,6.50
2023-01-19T05:00:18.976Z,8.00
2023-01-19T05:02:45.456Z,8.65
2023-01-19T05:05:11.838Z,12.77
2023-01-19T05:07:38.483Z,13.85
2023-01-19T05:10:06.012Z,6.88
2023-01-19T05:12:32.633Z,12.48
2023-01-19T05:14:59.144Z,8.35
2023-01-19T05:17:25.479Z,8.82
2023-01-19T05:19:51.776Z,17.95
2023-01-19T05:22:18.218Z,12.05
2023-01-19T05:24:44.523Z,11.45
2023-01-19T05:27:11.075Z,11.82
2023-01-19T05:29:37.756Z,14.52
2023-01-19T05:32:04.238Z,13.70
2023-01-19T05:34:30.669Z,11.45
2023-01-19T05:36:57.014Z,5.00
2023-01-19T05:39:23.406Z,14.07
2023-01-19T05:41:49.746Z,10.32
2023-01-19T05:44:16.120Z,11.20
2023-01-19T05:46:42.493Z,16.98
2023-01-19T05:49:09.344Z,16.02
2023-01-19T05:51:37.972Z,17.63
2023-01-19T05:54:04.886Z,18.40
2023-01-19T05:56:32.242Z,13.27
2023-01-19T05:58:59.496Z,11.88
2023-01-19T06:01:26.687Z,19.70
2023-01-19T06:03:53.207Z,25.30
2023-01-19T06:06:19.564Z,17.33
2023-01-19T06:08:45.935Z,15.18
2023-01-19T06:11:12.378Z,23.48
2023-01-19T06:13:42.260Z,17.33
2023-01-19T06:16:09.129Z,16.40
2023-01-19T06:18:35.514Z,14.82
2023-01-19T06:21:05.696Z,17.42
2023-01-19T06:23:32.785Z,12.70
2023-01-19T06:25:59.404Z,9.55
2023-01-19T06:28:25.808Z,6.88
2023-01-19T06:30:52.861Z,10.60
2023-01-19T06:33:19.873Z,10.63
2023-01-19T06:35:46.995Z,11.80
2023-01-19T06:38:13.910Z,14.45
2023-01-19T06:40:40.723Z,7.47
2023-01-19T06:43:07.821Z,11.15
2023-01-19T06:45:34.484Z,12.48
2023-01-19T06:48:00.868Z,14.50
2023-01-19T06:50:27.337Z,13.45
2023-01-19T06:52:53.955Z,11.02
2023-01-19T06:55:20.350Z,12.80
2023-01-19T06:57:46.771Z,15.82
2023-01-19T07:00:13.502Z,18.33
2023-01-19T07:02:43.368Z,18.77
2023-01-19T07:05:10.408Z,21.77
2023-01-19T07:07:39.599Z,21.20
2023-01-19T07:10:08.071Z,17.17
2023-01-19T07:12:34.820Z,16.20
2023-01-19T07:15:01.441Z,19.88
2023-01-19T07:17:27.818Z,18.58
2023-01-19T07:19:54.116Z,16.60
2023-01-19T07:22:20.463Z,14.82
2023-01-19T07:24:46.807Z,17.45
2023-01-19T07:27:13.259Z,22.48
2023-01-19T07:29:39.813Z,19.98
2023-01-19T07:32:06.297Z,24.15
2023-01-19T07:34:32.693Z,14.38
2023-01-19T07:36:59.050Z,24.42
2023-01-19T07:39:25.430Z,24.65
2023-01-19T07:41:51.863Z,15.98
2023-01-19T07:44:18.496Z,25.65
2023-01-19T07:46:45.006Z,20.20
2023-01-19T07:49:12.068Z,20.63
2023-01-19T07:51:38.462Z,24.10
2023-01-19T07:54:04.862Z,26.38
2023-01-19T07:56:33.877Z,17.95
2023-01-19T07:59:00.550Z,20.20
2023-01-19T08:01:27.123Z,16.92
2023-01-19T08:03:53.469Z,24.75
2023-01-19T08:06:21.384Z,12.80
2023-01-19T08:08:48.056Z,17.10
2023-01-19T08:11:15.147Z,22.17
2023-01-19T08:13:41.503Z,25.73
2023-01-19T08:16:08.095Z,12.88
2023-01-19T08:18:34.454Z,18.80
2023-01-19T08:21:01.126Z,23.60
2023-01-19T08:23:28.083Z,19.90
2023-01-19T08:25:54.491Z,16.95
2023-01-19T08:28:21.371Z,22.65
2023-01-19T08:30:54.107Z,18.65
2023-01-19T08:33:24.129Z,20.35
2023-01-19T08:35:51.785Z,29.52
2023-01-19T08:38:18.121Z,24.88
2023-01-19T08:40:44.807Z,19.13
2023-01-19T08:43:13.169Z,15.13
2023-01-19T08:45:48.206Z,35.83
2023-01-19T08:48:15.577Z,28.73
2023-01-19T08:50:42.004Z,22.52
2023-01-19T08:53:08.362Z,27.83
2023-01-19T08:55:36.021Z,18.27
2023-01-19T08:58:04.371Z,26.10
2023-01-19T09:00:34.354Z,21.30
2023-01-19T09:03:04.578Z,20.27
2023-01-19T09:05:35.380Z,23.02
2023-01-19T09:08:02.882Z,17.60
2023-01-19T09:10:35.979Z,16.10
2023-01-19T09:13:04.931Z,15.68
2023-01-19T09:15:35.645Z,13.15
2023-01-19T09:18:02.925Z,24.70
2023-01-19T09:20:31.042Z,16.48
2023-01-19T09:22:58.367Z,21.48
2023-01-19T09:25:24.885Z,13.82
2023-01-19T09:27:51.454Z,12.68
2023-01-19T09:30:19.054Z,17.83
2023-01-19T09:32:45.611Z,11.43
2023-01-19T09:35:11.953Z,24.60
2023-01-19T09:37:38.354Z,20.08
2023-01-19T09:40:05.914Z,12.57
2023-01-19T09:42:35.226Z,26.35
2023-01-19T09:45:04.930Z,17.80
2023-01-19T09:47:32.200Z,29.17
2023-01-19T09:50:03.031Z,14.05
2023-01-19T09:52:31.469Z,18.15
2023-01-19T09:54:58.914Z,15.23
2023-01-19T09:57:27.149Z,12.48
2023-01-19T09:59:57.997Z,14.57
2023-01-19T10:02:37.582Z,14.88
2023-01-19T10:05:04.005Z,16.23
2023-01-19T10:07:53.076Z,17.92
2023-01-19T10:10:24.328Z,12.20
2023-01-19T10:12:57.511Z,10.05
2023-01-19T10:15:46.619Z,12.93
2023-01-19T10:18:16.551Z,12.90
2023-01-19T10:20:49.257Z,16.73
2023-01-19T10:23:34.659Z,10.30
2023-01-19T10:26:02.904Z,10.98
2023-01-19T10:28:29.829Z,11.85
2023-01-19T10:30:56.376Z,13.70
2023-01-19T10:33:22.819Z,11.13
2023-01-19T10:35:49.520Z,11.82
2023-01-19T10:38:19.818Z,19.70
2023-01-19T10:40:49.676Z,13.25
2023-01-19T10:43:34.345Z,9.60
2023-01-19T10:46:07.765Z,8.43
2023-01-19T10:48:38.293Z,12.05
2023-01-19T10:51:05.557Z,7.20
2023-01-19T10:53:32.104Z,6.72
2023-01-19T10:56:12.267Z,11.43
2023-01-19T10:58:40.329Z,12.45
2023-01-19T11:01:25.856Z,13.52
2023-01-19T11:04:03.602Z,3.90
2023-01-19T11:06:30.705Z,11.40
2023-01-19T11:09:16.571Z,3.75
2023-01-19T11:11:46.403Z,7.60
2023-01-19T11:14:14.284Z,8.40
2023-01-19T11:16:41.422Z,8.43
2023-01-19T11:19:17.294Z,6.65
2023-01-19T11:21:43.627Z,11.25
2023-01-19T11:24:13.215Z,8.40
2023-01-19T11:26:41.915Z,6.50
2023-01-19T11:29:22.393Z,9.18
2023-01-19T11:31:49.549Z,7.05
2023-01-19T11:34:30.018Z,7.28
2023-01-19T11:36:57.680Z,4.35
2023-01-19T11:39:25.553Z,7.93
2023-01-19T11:41:53.470Z,8.15
2023-01-19T11:44:25.026Z,7.28
2023-01-19T11:46:54.595Z,16.63
2023-01-19T11:49:36.467Z,9.48
2023-01-19T11:52:21.619Z,9.23
2023-01-19T11:55:06.295Z,16.95
2023-01-19T11:57:32.758Z,7.68
2023-01-19T12:00:03.469Z,10.85
2023-01-19T12:02:40.952Z,4.95
2023-01-19T12:05:11.226Z,3.42
2023-01-19T12:07:38.103Z,4.78
2023-01-19T12:10:16.014Z,6.32
2023-01-19T12:12:43.522Z,6.85
2023-01-19T12:15:18.937Z,6.57
2023-01-19T12:17:47.111Z,4.68
2023-01-19T12:20:21.322Z,15.07
2023-01-19T12:22:50.758Z,3.97
2023-01-19T12:25:25.414Z,5.90
2023-01-19T12:27:52.750Z,3.42
2023-01-19T12:30:26.505Z,5.35
2023-01-19T12:33:12.788Z,3.30
2023-01-19T12:35:59.486Z,8.25
2023-01-19T12:38:37.848Z,6.30
2023-01-19T12:41:22.739Z,7.03
2023-01-19T12:44:09.070Z,6.13
2023-01-19T12:46:35.558Z,6.78
2023-01-19T12:49:04.866Z,5.63
2023-01-19T12:51:31.832Z,8.50
2023-01-19T12:53:59.615Z,5.80
2023-01-19T12:56:34.338Z,5.70
2023-01-19T12:59:00.776Z,3.30
2023-01-19T13:01:27.227Z,5.57
2023-01-19T13:04:22.914Z,5.03
2023-01-19T13:06:49.366Z,6.28
2023-01-19T13:09:29.322Z,2.17
2023-01-19T13:12:18.994Z,3.38
2023-01-19T13:14:45.309Z,7.72
2023-01-19T13:17:30.530Z,3.63
2023-01-19T13:20:01.864Z,4.97
2023-01-19T13:22:49.316Z,6.78
2023-01-19T13:25:26.479Z,8.65
2023-01-19T13:27:52.795Z,7.75
2023-01-19T13:30:20.768Z,7.15
2023-01-19T13:32:47.537Z,8.52
2023-01-19T13:35:17.423Z,7.75
2023-01-19T13:37:44.538Z,5.95
2023-01-19T13:40:38.258Z,3.80
2023-01-19T13:43:07.110Z,9.77
2023-01-19T13:45:37.033Z,3.53
2023-01-19T13:48:05.669Z,3.50
2023-01-19T13:50:33.211Z,4.95
2023-01-19T13:52:59.851Z,6.28
2023-01-19T13:55:27.796Z,5.03
2023-01-19T13:57:54.613Z,11.68
2023-01-19T14:00:22.755Z,3.40
2023-01-19T14:02:52.755Z,3.95
2023-01-19T14:05:23.961Z,4.70
2023-01-19T14:08:11.789Z,4.32
2023-01-19T14:10:48.135Z,3.55
2023-01-19T14:13:16.599Z,3.70
2023-01-19T14:15:44.902Z,6.18
2023-01-19T14:18:14.120Z,7.10
2023-01-19T14:20:40.787Z,7.82
2023-01-19T14:23:27.120Z,2.53
2023-01-19T14:25:53.457Z,3.30
2023-01-19T14:28:27.469Z,2.22
2023-01-19T14:31:00.102Z,1.85
2023-01-19T14:33:56.096Z,3.28
2023-01-19T14:36:25.645Z,3.35
2023-01-19T14:38:53.150Z,4.45
2023-01-19T14:41:25.041Z,6.43
2023-01-19T14:43:51.440Z,3.60
2023-01-19T14:46:19.117Z,6.57
2023-01-19T14:48:46.644Z,3.30
2023-01-19T14:51:16.208Z,3.85
2023-01-19T14:53:46.327Z,3.17
2023-01-19T14:56:12.710Z,7.50
2023-01-19T14:58:39.026Z,2.15
2023-01-19T15:01:06.326Z,3.70
2023-01-19T15:03:48.504Z,3.17
2023-01-19T15:06:20.514Z,4.57
2023-01-19T15:08:47.360Z,3.10
2023-01-19T15:11:21.223Z,3.28
2023-01-19T15:13:48.298Z,3.80
2023-01-19T15:16:14.844Z,8.38
2023-01-19T15:18:41.720Z,3.17
2023-01-19T15:21:15.173Z,9.18
2023-01-19T15:23:41.992Z,5.15
2023-01-19T15:26:11.562Z,4.78
2023-01-19T15:28:37.887Z,7.35
2023-01-19T15:31:04.338Z,6.45
2023-01-19T15:33:30.698Z,3.28
2023-01-19T15:35:57.080Z,8.60
2023-01-19T15:38:24.247Z,6.00
2023-01-19T15:40:51.638Z,5.07
2023-01-19T15:43:18.136Z,7.18
2023-01-19T15:45:53.074Z,2.03
2023-01-19T15:48:20.345Z,3.10
2023-01-19T15:50:47.728Z,6.78
2023-01-19T15:53:15.289Z,3.30
2023-01-19T15:55:41.868Z,4.05
2023-01-19T15:58:08.515Z,3.88
2023-01-19T16:00:35.391Z,2.97
2023-01-19T16:03:02.321Z,6.70
2023-01-19T16:05:41.962Z,4.55
2023-01-19T16:08:09.136Z,3.65
2023-01-19T16:10:35.612Z,6.03
2023-01-19T16:13:03.485Z,8.07
2023-01-19T16:15:29.919Z,3.25
2023-01-19T16:17:56.272Z,3.85
2023-01-19T16:20:22.629Z,5.90
2023-01-19T16:22:48.962Z,8.27
2023-01-19T16:25:15.322Z,3.60
2023-01-19T16:27:41.983Z,7.45
2023-01-19T16:30:10.609Z,6.53
2023-01-19T16:32:38.268Z,4.97
2023-01-19T16:35:04.813Z,7.70
2023-01-19T16:37:31.858Z,6.90
2023-01-19T16:39:58.246Z,6.05
2023-01-19T16:42:24.839Z,9.43
2023-01-19T16:44:51.988Z,10.43
2023-01-19T16:47:18.437Z,12.00
2023-01-19T16:49:44.815Z,5.22
2023-01-19T16:52:11.327Z,4.93
2023-01-19T16:54:39.409Z,4.85
2023-01-19T16:57:05.843Z,4.30
2023-01-19T16:59:32.324Z,3.97
2023-01-19T17:01:58.741Z,5.93
2023-01-19T17:04:26.370Z,5.15
2023-01-19T17:06:53.168Z,8.43
2023-01-19T17:09:19.512Z,5.05
2023-01-19T17:11:45.953Z,5.40
2023-01-19T17:14:13.959Z,5.30
2023-01-19T17:16:40.662Z,6.82
2023-01-19T17:19:07.226Z,5.32
2023-01-19T17:21:33.989Z,5.80
2023-01-19T17:24:00.363Z,8.32
2023-01-19T17:26:31.131Z,6.60
2023-01-19T17:29:01.323Z,7.20
2023-01-19T17:31:27.865Z,8.30
2023-01-19T17:33:54.325Z,9.60
2023-01-19T17:36:22.510Z,7.82
2023-01-19T17:38:49.271Z,8.25
2023-01-19T17:41:16.493Z,5.82
2023-01-19T17:43:43.120Z,7.10
2023-01-19T17:46:09.727Z,13.93
2023-01-19T17:48:36.213Z,8.18
2023-01-19T17:51:06.486Z,11.07
2023-01-19T17:53:33.323Z,10.35
2023-01-19T17:56:06.656Z,5.57
2023-01-19T17:58:34.525Z,5.47
2023-01-19T18:01:08.372Z,9.82
2023-01-19T18:03:34.754Z,6.50
2023-01-19T18:06:01.081Z,7.10
2023-01-19T18:08:27.618Z,5.13
2023-01-19T18:10:54.797Z,10.02
2023-01-19T18:13:21.276Z,9.00
2023-01-19T18:15:47.910Z,8.25
2023-01-19T18:18:14.485Z,11.93
2023-01-19T18:20:40.898Z,9.35
2023-01-19T18:23:07.377Z,21.52
2023-01-19T18:25:33.756Z,16.40
2023-01-19T18:28:00.146Z,6.25
2023-01-19T18:30:26.546Z,4.20
2023-01-19T18:32:52.981Z,12.35
2023-01-19T18:35:19.418Z,6.25
2023-01-19T18:37:45.811Z,7.25
2023-01-19T18:40:12.801Z,5.95
2023-01-19T18:57:20.680Z,7.43
2023-01-19T18:59:47.216Z,4.28
2023-01-19T19:02:13.653Z,10.68
2023-01-19T19:04:40.304Z,9.90
2023-01-19T19:07:06.901Z,7.43
2023-01-19T19:09:33.286Z,7.45
2023-01-19T19:11:59.682Z,7.18
2023-01-19T19:14:26.153Z,7.43
2023-01-19T19:16:52.499Z,6.85
2023-01-19T19:19:19.188Z,9.43
2023-01-19T19:21:45.620Z,4.05
2023-01-19T19:24:13.407Z,9.48
2023-01-19T19:26:40.192Z,16.60
2023-01-19T19:29:06.648Z,10.30
2023-01-19T19:31:33.109Z,4.55
2023-01-19T19:33:59.644Z,8.60
2023-01-19T19:36:27.224Z,7.25
2023-01-19T19:38:53.564Z,8.77
2023-01-19T19:41:23.855Z,6.55
2023-01-19T19:43:50.279Z,4.95
2023-01-19T19:46:19.747Z,6.72
2023-01-19T19:48:46.555Z,4.72
2023-01-19T19:51:18.485Z,6.43
2023-01-19T19:53:45.690Z,2.30
2023-01-19T19:56:15.400Z,4.25
2023-01-19T19:58:42.398Z,2.50
2023-01-19T20:01:09.690Z,2.08
2023-01-19T20:03:36.210Z,2.00
2023-01-19T20:06:03.909Z,1.27
2023-01-19T20:08:30.365Z,1.40
2023-01-19T20:11:02.891Z,1.52
2023-01-19T20:13:29.234Z,5.55
2023-01-19T20:15:55.739Z,1.67
2023-01-19T20:18:22.133Z,4.25
2023-01-19T20:20:48.567Z,5.55
2023-01-19T20:23:16.258Z,4.03
2023-01-19T20:25:42.751Z,3.92
2023-01-19T20:28:09.204Z,4.78
2023-01-19T20:30:35.633Z,2.97
2023-01-19T20:33:02.086Z,2.15
2023-01-19T20:35:28.646Z,1.85
2023-01-19T20:37:55.212Z,2.47
2023-01-19T20:40:21.578Z,2.65
2023-01-19T20:42:47.955Z,1.63
2023-01-19T20:45:14.597Z,1.67
2023-01-19T20:47:41.002Z,1.73
2023-01-19T20:50:07.666Z,0.80
2023-01-19T20:52:35.202Z,1.48
2023-01-19T20:55:01.656Z,1.20
2023-01-19T20:57:28.192Z,1.27
2023-01-19T20:59:55.089Z,2.65
2023-01-19T21:02:21.472Z,2.45
2023-01-19T21:04:47.874Z,1.65
2023-01-19T21:07:14.548Z,2.13
2023-01-19T21:09:41.077Z,1.30
2023-01-19T21:12:09.601Z,1.88
2023-01-19T21:14:36.259Z,14.02
2023-01-19T21:17:02.664Z,2.45
2023-01-19T21:19:29.642Z,4.10
2023-01-19T21:21:56.046Z,3.33
2023-01-19T21:24:22.522Z,2.55
2023-01-19T21:26:48.902Z,2.45
2023-01-19T21:29:15.278Z,2.72
2023-01-19T21:31:41.707Z,2.45
2023-01-19T21:34:08.689Z,6.78
2023-01-19T21:36:35.164Z,2.70
2023-01-19T21:39:01.747Z,2.85
2023-01-19T21:41:28.418Z,3.20
2023-01-19T21:43:54.820Z,3.30
2023-01-19T21:46:22.834Z,4.20
2023-01-19T21:48:50.219Z,4.40
2023-01-19T21:51:16.574Z,7.97
2023-01-19T21:53:43.026Z,5.43
2023-01-19T21:56:10.190Z,12.30
2023-01-19T21:58:36.512Z,6.60
2023-01-19T22:01:04.196Z,5.32
2023-01-19T22:03:30.880Z,5.50
2023-01-19T22:06:02.341Z,8.50
2023-01-19T22:08:28.683Z,7.85
2023-01-19T22:10:55.043Z,7.90
2023-01-19T22:13:21.357Z,7.43
2023-01-19T22:15:47.708Z,10.50
2023-01-19T22:18:14.023Z,11.07
2023-01-19T22:20:40.656Z,8.50
2023-01-19T22:23:07.299Z,17.13
2023-01-19T22:25:33.742Z,9.90
2023-01-19T22:28:00.136Z,12.65
2023-01-19T22:30:26.675Z,16.15
2023-01-19T22:32:53.331Z,11.70
2023-01-19T22:35:21.109Z,13.98
2023-01-19T22:37:47.626Z,17.75
2023-01-19T22:40:14.073Z,14.75
2023-01-19T22:42:40.479Z,15.27
2023-01-19T22:45:07.218Z,16.92
2023-01-19T22:47:33.622Z,16.52
2023-01-19T22:50:00.013Z,15.65
2023-01-19T22:52:26.319Z,20.55
2023-01-19T22:54:56.145Z,18.23
2023-01-19T22:57:22.527Z,14.55
2023-01-19T22:59:48.878Z,13.48
2023-01-19T23:02:15.312Z,12.23
2023-01-19T23:04:41.728Z,12.75
2023-01-19T23:07:09.343Z,11.77
2023-01-19T23:09:36.914Z,12.35
2023-01-19T23:12:03.366Z,12.32
2023-01-19T23:14:29.724Z,13.55
2023-01-19T23:16:56.111Z,11.68
2023-01-19T23:19:22.493Z,12.95
2023-01-19T23:21:52.878Z,11.52
2023-01-19T23:24:19.314Z,10.30
2023-01-19T23:26:45.690Z,10.55
2023-01-19T23:29:13.245Z,10.10
2023-01-19T23:31:42.287Z,9.48
2023-01-19T23:34:09.429Z,10.40
2023-01-19T23:36:37.035Z,9.93
2023-01-19T23:39:05.244Z,9.30
2023-01-19T23:41:34.375Z,9.60
2023-01-19T23:44:00.859Z,10.05
2023-01-19T23:46:27.691Z,9.57
2023-01-19T23:48:54.124Z,10.60
2023-01-19T23:51:27.790Z,10.23
2023-01-19T23:53:54.461Z,8.95
2023-01-19T23:56:25.067Z,9.25
2023-01-19T23:58:56.199Z,9.38
